Weather at Queen Alia International Airport

Public forecast

Using degrees Celsius for public forecast. Weather courtesy of forecast.io.

Current aviation weather report (METAR) for Queen Alia International Airport

Retrieved 2021/12/05 10:00 UTC (33 minutes ago):

OJAI 051000Z 25015KT 5000 BLDU NSC 18/00 Q1014 NOSIG

Aviation forecast (TAF) for Queen Alia International Airport

Retrieved 2021/12/05 06:00 UTC (5 hours ago):

TAF OJAI 050500Z 0506/0612 23008KT 5000 HZ FEW035 PROB40 TEMPO 0510/0518 25020KT 3000 BLDU BKN030